Statesboro, GA

1:43 PM EDT on July 29, 2014 (GMT -0400)
Statesboro-Bulloch County (KTBR) Elev 187 ft | 32.48 °N, 81.74 °W | Change Station

Current weather conditions updated 8 minutes ago

Clear
Clear
86 °F
Feels Like 87 °F
N
0
Wind Variable Wind from North

Today is forecast to be Cooler than yesterday.

Today
High -- | Low -- °F
--% Chance of Precip.
Yesterday
High -- | Low -- °F
Precip. -- in
6:39 AM 8:27 PM
Waxing Crescent, 7% visible
Pressure 29.93 in
Visibility 10.0 miles
Clouds Clear
Heat Index 87 °F
Dew Point 64 °F
Humidity 49%
Rainfall 0.00 in
Snow Depth Not available.
UV 13 out of 12
Pollen 3.70 out of 12
Air Quality Not available.
Flu Activity Not available.
METAR KTBR 291735Z AUTO 00000KT 10SM CLR 30/18 A2993 RMK AO2 T02970180

More Conditions Fewer Conditions

Pressure 29.93 in
Visibility 10.0 miles
Clouds Clear
Heat Index 87 °F
Dew Point 64 °F
Humidity 49%
Rainfall 0.00 in
Snow Depth Not available.
UV 13 out of 12
Pollen 3.70 out of 12
Air Quality Not available.
Flu Activity Not available.
METAR KTBR 291735Z AUTO 00000KT 10SM CLR 30/18 A2993 RMK AO2 T02970180

More Conditions Fewer Conditions

10-Day Weather Forecast

Almanac

Astronomy

Jul. 29, 2014 Rise Set
Actual Time 6:39 AM EDT 8:27 PM EDT
Civil Twilight 6:12 AM EDT 8:54 PM EDT
Nautical Twilight 5:40 AM EDT 9:26 PM EDT
Astronomical Twilight 5:05 AM EDT 10:00 PM EDT
Moon 9:03 AM EDT 9:52 PM EDT
Length of Visible Light 14h 41m
Length of Day
13h 47m
Tomorrow will be 1m 25s shorter.
Waxing Crescent, 7% of the Moon is Illuminated
Today
Waxing Crescent
Aug 3
First Quarter
Aug 10
Full
Aug 17
Last Quarter
Aug 25
New

Today's Extremes

State Highs State Lows

Community

WunderPhotos

Upload Photos

1,738,803 photos uploaded!

Nearby

Snow Depth

Station Depth Elevation
No new snow has been reported.

Earthquake Activity

City Distance Mag. Time & Date
No recent earthquake activity has been reported nearby.
Minimum magnitude displayed is 2.5.

Coastal Water Temperatures

Place Temperature
No Stations Reporting

Nearby Weather Stations

Station Location Temp. Heat Index Dew Point Humidity Wind Precip. Elev Updated Type
RAWS METTER GA, Metter, GA 87 °F 87 °F 60 °F 41% SSW  at  4 mph 0.00 in / hr 198 ft 1:03 PM EDT MADIS
Hope Street, Metter, GA 86.7 °F 89 °F 66 °F 51% NE  at  1.2 mph 0.00 in / hr 211 ft 1:43 PM EDT Rapid Fire
Georgia Gold, Pembroke, GA 87.0 °F 89 °F 66 °F 49% West  at  0.0 mph 0.00 in / hr 93 ft 1:40 PM EDT Normal
Stilson-Ellabell, Brooklet, GA 87.0 °F 88 °F 62 °F 44% SSE  at  2.0 mph 0.00 in / hr 95 ft 1:43 PM EDT Normal

Show More Stations Show Fewer Stations